Time;durP1;ratioP1;P1;durP2;ratioP2;P2;SDS_P1;SDS_P2;PMS_P1;PMS_P2;Temp;Humidity;BMP_temperature;BMP_pressure;BME280_temperature;BME280_humidity;BME280_pressure;Samples;Min_cycle;Max_cycle;Signal;HPM_P1;HPM_P2
2022/10/20 00:02:11;;;;;;;;;;;9.00;99.90;;;;;;5043528;28;19967;-79
2022/10/20 00:04:37;;;;;;;;;;;9.00;99.90;;;;;;5042100;28;19909;-81
2022/10/20 00:07:02;;;;;;;;;;;9.00;99.90;;;;;;5042307;28;19917;-80
2022/10/20 00:09:28;;;;;;;;;;;8.90;99.90;;;;;;5025713;28;20285;-80
2022/10/20 00:11:53;;;;;;;;;;;9.00;99.90;;;;;;5044611;28;19984;-77
2022/10/20 00:14:19;;;;;;;;;;;9.00;99.90;;;;;;5045173;28;19936;-79
2022/10/20 00:16:45;;;;;;;;;;;8.90;99.90;;;;;;5041620;28;19968;-78
2022/10/20 00:19:11;;;;;;;;;;;8.90;99.90;;;;;;5040756;28;19909;-79
2022/10/20 00:21:36;;;;;;;;;;;8.90;99.90;;;;;;5043814;28;20334;-78
2022/10/20 00:24:02;;;;;;;;;;;8.80;99.90;;;;;;5031220;28;19916;-78
2022/10/20 00:26:29;;;;;;;;;;;8.80;99.90;;;;;;5046561;28;19940;-79
2022/10/20 00:28:55;;;;;;;;;;;8.80;99.90;;;;;;5043284;28;19909;-78
2022/10/20 00:31:22;;;;;;;;;;;8.70;99.90;;;;;;5044150;28;19913;-79
2022/10/20 00:33:47;;;;;;;;;;;8.60;99.90;;;;;;5043428;28;20204;-79
2022/10/20 00:36:15;;;;;;;;;;;8.60;99.90;;;;;;5047788;28;20008;-78
2022/10/20 00:38:41;;;;;;;;;;;8.50;99.90;;;;;;5048965;28;19952;-79
2022/10/20 00:41:08;;;;;;;;;;;8.50;99.90;;;;;;5053266;28;19948;-78
2022/10/20 00:43:46;;;;;;;;;;;8.50;99.90;;;;;;5043058;28;19944;-80
2022/10/20 00:46:14;;;;;;;;;;;8.50;99.90;;;;;;5048255;28;19928;-78
2022/10/20 00:48:41;;;;;;;;;;;8.40;99.90;;;;;;5045525;28;19913;-80
2022/10/20 00:51:07;;;;;;;;;;;8.40;99.90;;;;;;5044320;28;19913;-80
2022/10/20 00:53:33;;;;;;;;;;;8.40;99.90;;;;;;5045562;28;19988;-78
2022/10/20 00:55:59;;;;;;;;;;;8.30;99.90;;;;;;5040753;28;19924;-82
2022/10/20 00:58:25;;;;;;;;;;;8.30;99.90;;;;;;5039576;28;19916;-78
2022/10/20 01:00:52;;;;;;;;;;;8.20;99.90;;;;;;5039732;28;20011;-79
2022/10/20 01:03:44;;;;;;;;;;;8.10;99.90;;;;;;5042009;28;19909;-78
2022/10/20 01:06:13;;;;;;;;;;;8.10;99.90;;;;;;5073840;22;19924;-88
2022/10/20 01:08:45;;;;;;;;;;;8.10;99.90;;;;;;5058934;28;19908;-87
2022/10/20 01:11:13;;;;;;;;;;;8.00;99.90;;;;;;5046733;28;19926;-87
2022/10/20 01:13:47;;;;;;;;;;;8.00;99.90;;;;;;5062926;28;19923;-85
2022/10/20 01:16:18;;;;;;;;;;;8.00;99.90;;;;;;5089895;28;19917;-86
2022/10/20 01:19:00;;;;;;;;;;;8.00;99.90;;;;;;5100154;28;19900;-87
2022/10/20 01:21:41;;;;;;;;;;;8.00;99.90;;;;;;5064306;28;19948;-88
2022/10/20 01:24:19;;;;;;;;;;;8.00;99.90;;;;;;5075058;28;20430;-88
2022/10/20 01:27:14;;;;;;;;;;;7.90;99.90;;;;;;5092811;28;20272;-87
2022/10/20 01:29:48;;;;;;;;;;;7.90;99.90;;;;;;5073796;28;19913;-88
2022/10/20 01:32:22;;;;;;;;;;;7.80;99.90;;;;;;5071753;28;19959;-86
2022/10/20 01:35:08;;;;;;;;;;;7.80;99.90;;;;;;5055449;28;19936;-89
2022/10/20 01:38:03;;;;;;;;;;;7.80;99.90;;;;;;5054058;28;19916;-87
2022/10/20 01:40:32;;;;;;;;;;;7.80;99.90;;;;;;5075387;28;19908;-85
2022/10/20 01:43:00;;;;;;;;;;;7.70;99.90;;;;;;5066025;28;19923;-87
2022/10/20 01:45:31;;;;;;;;;;;7.80;99.90;;;;;;5093691;28;19905;-89
2022/10/20 01:47:57;;;;;;;;;;;7.70;99.90;;;;;;5082120;28;19916;-87
2022/10/20 01:50:27;;;;;;;;;;;7.70;99.90;;;;;;5065841;28;19901;-87
2022/10/20 01:53:04;;;;;;;;;;;7.70;99.90;;;;;;5082287;28;19915;-86
2022/10/20 01:55:34;;;;;;;;;;;7.70;99.90;;;;;;5065677;28;19926;-86
2022/10/20 01:58:03;;;;;;;;;;;7.70;99.90;;;;;;5065393;28;19988;-86
2022/10/20 02:00:29;;;;;;;;;;;7.70;99.90;;;;;;5099492;28;19904;-85
2022/10/20 02:02:55;;;;;;;;;;;7.60;99.90;;;;;;5062600;28;19912;-88
2022/10/20 02:05:24;;;;;;;;;;;7.70;99.90;;;;;;5076091;28;19919;-88
2022/10/20 02:07:53;;;;;;;;;;;7.60;99.90;;;;;;5079337;28;19912;-89
2022/10/20 02:10:28;;;;;;;;;;;7.70;99.90;;;;;;5055245;28;19913;-88
2022/10/20 02:13:02;;;;;;;;;;;7.60;99.90;;;;;;5053918;28;19916;-87
2022/10/20 02:15:35;;;;;;;;;;;7.60;99.90;;;;;;5058866;28;19932;-85
2022/10/20 02:18:05;;;;;;;;;;;7.60;99.90;;;;;;5081880;28;20137;-85
2022/10/20 02:20:46;;;;;;;;;;;7.60;99.90;;;;;;5083570;28;19944;-86
2022/10/20 02:23:12;;;;;;;;;;;7.60;99.90;;;;;;5065071;28;19900;-87
2022/10/20 02:25:38;;;;;;;;;;;7.60;99.90;;;;;;5079022;28;19913;-88
2022/10/20 02:28:07;;;;;;;;;;;7.50;99.90;;;;;;5055317;28;19923;-87
2022/10/20 02:30:37;;;;;;;;;;;7.50;99.90;;;;;;5055204;28;19908;-88
2022/10/20 02:33:03;;;;;;;;;;;7.50;99.90;;;;;;5072521;28;19920;-87
2022/10/20 02:35:30;;;;;;;;;;;7.50;99.90;;;;;;5096438;28;19915;-88
2022/10/20 02:37:56;;;;;;;;;;;7.50;99.90;;;;;;5079359;28;19927;-87
2022/10/20 02:40:22;;;;;;;;;;;7.40;99.90;;;;;;5062765;28;19900;-85
2022/10/20 02:42:48;;;;;;;;;;;7.40;99.90;;;;;;5081482;28;19904;-86
2022/10/20 02:45:13;;;;;;;;;;;7.40;99.90;;;;;;5064678;28;19928;-87
2022/10/20 02:47:39;;;;;;;;;;;7.40;99.90;;;;;;5080980;28;19980;-86
2022/10/20 02:50:06;;;;;;;;;;;7.40;99.90;;;;;;5064316;28;19919;-86
2022/10/20 02:52:32;;;;;;;;;;;7.40;99.90;;;;;;5080904;28;19996;-86
2022/10/20 02:55:01;;;;;;;;;;;7.40;99.90;;;;;;5081185;28;19907;-86
2022/10/20 02:57:32;;;;;;;;;;;7.30;99.90;;;;;;5097971;28;19912;-87
2022/10/20 03:00:01;;;;;;;;;;;7.40;99.90;;;;;;5080985;28;19940;-85
2022/10/20 03:02:30;;;;;;;;;;;7.40;99.90;;;;;;5055041;28;20003;-87
2022/10/20 03:04:57;;;;;;;;;;;7.30;99.90;;;;;;5066294;28;19955;-89
2022/10/20 03:07:29;;;;;;;;;;;7.30;99.90;;;;;;5066111;28;19916;-87
2022/10/20 03:10:01;;;;;;;;;;;7.30;99.90;;;;;;5066192;28;20015;-87
2022/10/20 03:12:26;;;;;;;;;;;7.30;99.90;;;;;;5048597;28;19938;-88
2022/10/20 03:14:52;;;;;;;;;;;7.30;99.90;;;;;;5058519;28;19974;-88
2022/10/20 03:17:24;;;;;;;;;;;7.30;99.90;;;;;;5055682;28;19912;-88
2022/10/20 03:19:57;;;;;;;;;;;7.20;99.90;;;;;;5050004;28;20356;-86
2022/10/20 03:22:29;;;;;;;;;;;7.30;99.90;;;;;;5053510;28;20437;-88
2022/10/20 03:24:58;;;;;;;;;;;7.30;99.90;;;;;;5063710;28;19921;-86
2022/10/20 03:27:30;;;;;;;;;;;7.20;99.90;;;;;;5064212;28;19904;-86
2022/10/20 03:29:58;;;;;;;;;;;7.20;99.90;;;;;;5062417;28;19921;-87
2022/10/20 03:32:30;;;;;;;;;;;7.20;99.90;;;;;;5059114;28;19916;-88
2022/10/20 03:35:01;;;;;;;;;;;7.20;99.90;;;;;;5057922;28;19912;-86
2022/10/20 03:37:30;;;;;;;;;;;7.20;99.90;;;;;;5063987;28;19951;-86
2022/10/20 03:40:01;;;;;;;;;;;7.10;99.90;;;;;;5080525;28;19932;-86
2022/10/20 03:42:33;;;;;;;;;;;7.20;99.90;;;;;;5080879;28;19905;-88
2022/10/20 03:44:59;;;;;;;;;;;7.10;99.90;;;;;;5062623;28;19923;-89
2022/10/20 03:47:28;;;;;;;;;;;7.10;99.90;;;;;;5068188;28;19908;-88
2022/10/20 03:49:56;;;;;;;;;;;7.10;99.90;;;;;;5049267;28;19912;-88
2022/10/20 03:52:24;;;;;;;;;;;7.20;99.90;;;;;;5079979;28;19908;-86
2022/10/20 03:54:51;;;;;;;;;;;7.20;99.90;;;;;;5058489;28;19928;-88
2022/10/20 03:57:18;;;;;;;;;;;7.20;99.90;;;;;;5059986;28;19913;-86
2022/10/20 03:59:48;;;;;;;;;;;7.20;99.90;;;;;;5093217;28;20114;-87
2022/10/20 04:02:22;;;;;;;;;;;7.20;99.90;;;;;;5061603;28;19916;-86
2022/10/20 04:04:51;;;;;;;;;;;7.20;99.90;;;;;;5038703;28;20327;-87
2022/10/20 04:07:20;;;;;;;;;;;7.20;99.90;;;;;;5034658;28;20257;-87
2022/10/20 04:09:46;;;;;;;;;;;7.20;99.90;;;;;;5054599;28;19913;-87
2022/10/20 04:12:15;;;;;;;;;;;7.20;99.90;;;;;;5059897;28;19919;-86
2022/10/20 04:14:41;;;;;;;;;;;7.20;99.90;;;;;;5077147;28;19915;-85
2022/10/20 04:17:07;;;;;;;;;;;7.30;99.90;;;;;;5059765;28;19909;-87
2022/10/20 04:19:33;;;;;;;;;;;7.30;99.90;;;;;;5036352;28;19917;-87
2022/10/20 04:21:59;;;;;;;;;;;7.20;99.90;;;;;;5070551;28;19896;-87
2022/10/20 04:24:31;;;;;;;;;;;7.30;99.90;;;;;;5041454;28;19923;-86
2022/10/20 04:27:04;;;;;;;;;;;7.30;99.90;;;;;;5042228;28;19935;-86
2022/10/20 04:29:30;;;;;;;;;;;7.20;99.90;;;;;;5045310;28;19964;-86
2022/10/20 04:32:02;;;;;;;;;;;7.20;99.90;;;;;;5043270;28;19909;-89
2022/10/20 04:34:28;;;;;;;;;;;7.20;99.90;;;;;;5041922;28;19916;-89
2022/10/20 04:36:57;;;;;;;;;;;7.20;99.90;;;;;;5038954;28;19909;-86
2022/10/20 04:39:25;;;;;;;;;;;7.20;99.90;;;;;;5042887;28;19913;-87
2022/10/20 04:41:51;;;;;;;;;;;7.30;99.90;;;;;;5045205;28;19978;-88
2022/10/20 04:44:20;;;;;;;;;;;7.30;99.90;;;;;;5054372;28;20010;-88
2022/10/20 04:46:49;;;;;;;;;;;7.30;99.90;;;;;;5070644;28;19944;-88
2022/10/20 04:49:28;;;;;;;;;;;7.30;99.90;;;;;;5034949;28;19913;-88
2022/10/20 04:51:59;;;;;;;;;;;7.30;99.90;;;;;;5034810;28;19916;-89
2022/10/20 04:54:28;;;;;;;;;;;7.20;99.90;;;;;;5034430;28;19992;-87
2022/10/20 04:57:03;;;;;;;;;;;7.20;99.90;;;;;;5038531;28;19908;-87
2022/10/20 04:59:32;;;;;;;;;;;7.20;99.90;;;;;;5045021;28;19915;-88
2022/10/20 05:02:07;;;;;;;;;;;7.20;99.90;;;;;;5045599;28;19920;-88
2022/10/20 05:04:42;;;;;;;;;;;7.20;99.90;;;;;;5046356;28;19905;-86
2022/10/20 05:07:22;;;;;;;;;;;7.20;99.90;;;;;;5062010;28;19928;-86
2022/10/20 05:09:51;;;;;;;;;;;7.20;99.90;;;;;;5045795;28;19905;-86
2022/10/20 05:12:23;;;;;;;;;;;7.20;99.90;;;;;;5061279;28;19924;-88
2022/10/20 05:14:52;;;;;;;;;;;7.10;99.90;;;;;;5052368;28;19917;-88
2022/10/20 05:17:32;;;;;;;;;;;7.20;99.90;;;;;;5041696;28;20285;-88
2022/10/20 05:19:58;;;;;;;;;;;7.20;99.90;;;;;;5043195;28;19917;-89
2022/10/20 05:22:35;;;;;;;;;;;7.20;99.90;;;;;;5061333;28;19924;-89
2022/10/20 05:25:09;;;;;;;;;;;7.20;99.90;;;;;;5058759;28;19905;-89
2022/10/20 05:28:05;;;;;;;;;;;7.20;99.90;;;;;;5060633;28;20004;-88
2022/10/20 05:30:46;;;;;;;;;;;7.20;99.90;;;;;;5038596;28;19920;-87
2022/10/20 05:33:28;;;;;;;;;;;7.20;99.90;;;;;;5054738;28;19905;-88
2022/10/20 05:36:11;;;;;;;;;;;7.20;99.90;;;;;;5061179;28;19920;-85
2022/10/20 05:38:39;;;;;;;;;;;7.20;99.90;;;;;;5060542;28;19936;-86
2022/10/20 05:41:13;;;;;;;;;;;7.20;99.90;;;;;;5045266;28;19908;-87
2022/10/20 05:43:49;;;;;;;;;;;7.20;99.90;;;;;;5045525;28;19909;-86
2022/10/20 05:46:16;;;;;;;;;;;7.20;99.90;;;;;;5061807;28;19912;-85
2022/10/20 05:48:45;;;;;;;;;;;7.30;99.90;;;;;;5061284;28;19935;-87
2022/10/20 05:51:31;;;;;;;;;;;7.30;99.90;;;;;;5058754;28;19916;-86
2022/10/20 05:53:58;;;;;;;;;;;7.30;99.90;;;;;;5059733;28;19901;-86
2022/10/20 05:56:30;;;;;;;;;;;7.30;99.90;;;;;;5060907;28;19924;-87
2022/10/20 05:59:17;;;;;;;;;;;7.40;99.90;;;;;;5060937;28;19920;-86
2022/10/20 06:01:53;;;;;;;;;;;7.40;99.90;;;;;;5043431;28;19921;-87
2022/10/20 06:04:32;;;;;;;;;;;7.50;99.90;;;;;;5043785;28;19905;-87
2022/10/20 06:07:02;;;;;;;;;;;7.50;99.90;;;;;;5052141;28;19916;-89
2022/10/20 06:09:31;;;;;;;;;;;7.60;99.90;;;;;;5054161;28;20434;-88
2022/10/20 06:12:03;;;;;;;;;;;7.60;99.90;;;;;;5052586;28;19916;-89
2022/10/20 06:14:32;;;;;;;;;;;7.70;99.90;;;;;;5069544;28;19955;-89
2022/10/20 06:17:03;;;;;;;;;;;7.70;99.90;;;;;;5034870;28;19948;-88
2022/10/20 06:19:35;;;;;;;;;;;7.80;99.90;;;;;;5051105;28;19913;-87
2022/10/20 06:22:21;;;;;;;;;;;7.80;99.90;;;;;;5035086;28;19913;-87
2022/10/20 06:24:50;;;;;;;;;;;7.90;99.90;;;;;;5055304;28;19992;-87
2022/10/20 06:27:24;;;;;;;;;;;7.90;99.90;;;;;;5041365;28;19915;-87
2022/10/20 06:29:58;;;;;;;;;;;8.00;99.90;;;;;;5039151;28;19976;-87
2022/10/20 06:32:53;;;;;;;;;;;8.10;99.90;;;;;;5037030;28;19917;-88
2022/10/20 06:35:49;;;;;;;;;;;8.30;99.90;;;;;;5058504;28;19908;-85
2022/10/20 06:38:24;;;;;;;;;;;8.30;99.90;;;;;;5043063;28;19917;-86
2022/10/20 06:41:12;;;;;;;;;;;8.40;99.90;;;;;;5060380;28;19933;-85
2022/10/20 06:43:49;;;;;;;;;;;8.50;99.90;;;;;;5045115;28;20318;-86
2022/10/20 06:46:42;;;;;;;;;;;8.60;99.90;;;;;;5043643;28;19908;-88
2022/10/20 06:49:31;;;;;;;;;;;8.70;99.90;;;;;;5034800;28;19905;-88
2022/10/20 06:52:38;;;;;;;;;;;8.70;99.90;;;;;;5050517;28;20019;-88
2022/10/20 06:55:16;;;;;;;;;;;8.70;99.90;;;;;;5033742;28;19986;-88
2022/10/20 06:57:54;;;;;;;;;;;8.70;99.90;;;;;;5033789;28;19943;-88
2022/10/20 07:00:24;;;;;;;;;;;8.80;99.90;;;;;;5037310;28;19913;-88
2022/10/20 07:03:17;;;;;;;;;;;8.70;99.90;;;;;;5043280;28;19955;-89
2022/10/20 07:06:04;;;;;;;;;;;8.60;99.90;;;;;;5070629;22;20014;-79
2022/10/20 07:08:31;;;;;;;;;;;8.60;99.90;;;;;;5039480;28;20288;-79
2022/10/20 07:11:00;;;;;;;;;;;8.60;99.90;;;;;;5041263;28;20020;-79
2022/10/20 07:13:26;;;;;;;;;;;8.70;99.90;;;;;;5022724;28;19927;-79
2022/10/20 07:15:53;;;;;;;;;;;8.70;99.90;;;;;;5046147;28;19916;-79
2022/10/20 07:18:18;;;;;;;;;;;8.80;99.90;;;;;;5065652;28;19916;-79
2022/10/20 07:20:44;;;;;;;;;;;8.90;99.90;;;;;;5065281;28;19916;-80
2022/10/20 07:23:10;;;;;;;;;;;8.90;99.90;;;;;;5066832;28;19912;-78
2022/10/20 07:25:35;;;;;;;;;;;9.00;99.90;;;;;;5065083;28;19936;-80
2022/10/20 07:28:01;;;;;;;;;;;9.10;99.90;;;;;;5060103;28;19952;-80
2022/10/20 07:30:27;;;;;;;;;;;9.20;99.90;;;;;;5068260;28;19969;-80
2022/10/20 07:32:52;;;;;;;;;;;9.30;99.90;;;;;;5060205;28;20440;-79
2022/10/20 07:35:18;;;;;;;;;;;9.30;99.90;;;;;;5059542;28;19909;-79
2022/10/20 07:37:44;;;;;;;;;;;9.30;99.90;;;;;;5060967;28;19924;-80
2022/10/20 07:40:09;;;;;;;;;;;9.40;99.90;;;;;;5069458;28;20444;-80
2022/10/20 07:42:35;;;;;;;;;;;9.40;99.90;;;;;;5043705;28;19940;-81
2022/10/20 07:45:01;;;;;;;;;;;9.40;99.90;;;;;;5058009;28;19908;-79
2022/10/20 07:47:26;;;;;;;;;;;9.50;99.90;;;;;;5058564;28;19913;-79
2022/10/20 07:49:52;;;;;;;;;;;9.50;99.90;;;;;;5060855;28;19972;-80
2022/10/20 07:52:18;;;;;;;;;;;9.60;99.90;;;;;;5044107;28;19978;-80
2022/10/20 07:54:44;;;;;;;;;;;9.60;99.90;;;;;;5044116;28;20356;-81
2022/10/20 07:57:10;;;;;;;;;;;9.70;99.90;;;;;;5063788;28;19970;-81
2022/10/20 07:59:35;;;;;;;;;;;9.70;99.90;;;;;;5049509;28;19948;-80
2022/10/20 08:02:01;;;;;;;;;;;9.80;99.90;;;;;;5065898;28;20007;-79
2022/10/20 08:04:27;;;;;;;;;;;9.90;99.90;;;;;;5068942;28;19915;-80
2022/10/20 08:06:53;;;;;;;;;;;10.00;99.90;;;;;;5047942;28;19929;-80
2022/10/20 08:09:19;;;;;;;;;;;10.00;99.90;;;;;;5065222;28;20138;-79
2022/10/20 08:11:44;;;;;;;;;;;10.10;99.90;;;;;;5068637;28;19928;-81
2022/10/20 08:14:10;;;;;;;;;;;10.20;99.90;;;;;;5045360;28;19909;-80
2022/10/20 08:16:36;;;;;;;;;;;10.20;99.90;;;;;;5061487;28;19912;-81
2022/10/20 08:19:01;;;;;;;;;;;10.20;99.90;;;;;;5061463;28;19955;-81
2022/10/20 08:21:27;;;;;;;;;;;10.40;99.90;;;;;;5062573;28;20440;-80
2022/10/20 08:23:53;;;;;;;;;;;10.50;99.90;;;;;;5065274;28;19908;-80
2022/10/20 08:26:20;;;;;;;;;;;10.60;99.90;;;;;;5062293;28;19920;-79
2022/10/20 08:28:46;;;;;;;;;;;10.70;99.90;;;;;;5046226;28;19920;-78
2022/10/20 08:31:12;;;;;;;;;;;10.80;99.90;;;;;;5066197;28;19923;-80
2022/10/20 08:33:39;;;;;;;;;;;10.90;99.90;;;;;;5062629;28;19952;-80
2022/10/20 08:36:10;;;;;;;;;;;11.10;99.90;;;;;;5060979;28;20003;-79
2022/10/20 08:38:36;;;;;;;;;;;11.70;99.90;;;;;;5061028;28;19999;-79
2022/10/20 08:41:04;;;;;;;;;;;12.50;99.90;;;;;;5061164;28;20115;-79
2022/10/20 08:43:30;;;;;;;;;;;13.60;99.90;;;;;;5027342;28;19999;-80
2022/10/20 08:45:56;;;;;;;;;;;13.90;99.90;;;;;;5043507;28;20007;-79
2022/10/20 08:48:32;;;;;;;;;;;14.30;99.90;;;;;;5061759;28;20434;-81
2022/10/20 08:50:58;;;;;;;;;;;15.60;99.90;;;;;;5060710;28;19920;-79
2022/10/20 08:53:25;;;;;;;;;;;16.90;99.90;;;;;;5060340;28;19913;-80
2022/10/20 08:55:51;;;;;;;;;;;17.70;99.90;;;;;;5062086;28;19913;-80
2022/10/20 08:58:21;;;;;;;;;;;18.10;98.30;;;;;;5063192;28;19909;-80
2022/10/20 09:00:47;;;;;;;;;;;18.40;97.20;;;;;;5062289;28;19927;-79
2022/10/20 09:03:15;;;;;;;;;;;19.00;96.60;;;;;;5042581;28;20380;-80
2022/10/20 09:05:42;;;;;;;;;;;19.60;94.90;;;;;;5061038;28;19936;-80
2022/10/20 09:08:08;;;;;;;;;;;19.90;93.80;;;;;;5062443;28;19923;-80
2022/10/20 09:10:35;;;;;;;;;;;20.60;92.50;;;;;;5045761;28;20381;-79
2022/10/20 09:13:05;;;;;;;;;;;21.10;91.30;;;;;;5044270;28;19935;-81
2022/10/20 09:15:31;;;;;;;;;;;22.30;89.70;;;;;;5042190;28;19913;-79
2022/10/20 09:18:01;;;;;;;;;;;23.00;86.10;;;;;;5060584;28;19909;-79
2022/10/20 09:20:47;;;;;;;;;;;22.80;82.80;;;;;;5042442;28;20261;-79
2022/10/20 09:23:15;;;;;;;;;;;22.30;83.30;;;;;;5047306;28;19916;-80
2022/10/20 09:25:41;;;;;;;;;;;23.30;81.60;;;;;;5059971;28;20016;-80
2022/10/20 09:28:15;;;;;;;;;;;24.60;78.80;;;;;;5059688;28;19971;-81
2022/10/20 09:30:40;;;;;;;;;;;25.10;75.80;;;;;;5043107;28;20376;-80
2022/10/20 09:33:38;;;;;;;;;;;24.80;74.10;;;;;;5060693;28;19923;-80
2022/10/20 09:36:11;;;;;;;;;;;24.50;74.20;;;;;;5021828;28;19920;-80
2022/10/20 09:38:40;;;;;;;;;;;24.10;74.00;;;;;;5060752;28;19919;-79
2022/10/20 09:41:12;;;;;;;;;;;23.90;74.30;;;;;;5043671;28;19908;-80
2022/10/20 09:43:39;;;;;;;;;;;24.40;74.10;;;;;;5060322;28;20003;-80
2022/10/20 09:46:06;;;;;;;;;;;25.00;72.40;;;;;;5043359;28;19913;-80
2022/10/20 09:48:34;;;;;;;;;;;25.30;70.70;;;;;;5060052;28;19960;-82
2022/10/20 09:51:00;;;;;;;;;;;24.60;70.60;;;;;;5060931;28;19916;-81
2022/10/20 09:53:27;;;;;;;;;;;24.00;72.20;;;;;;5061700;28;19916;-79
2022/10/20 09:55:53;;;;;;;;;;;23.90;73.00;;;;;;5058681;28;19908;-80
2022/10/20 09:58:29;;;;;;;;;;;24.30;71.90;;;;;;5061237;28;19917;-82
2022/10/20 10:00:58;;;;;;;;;;;24.30;70.60;;;;;;5043156;28;19956;-80
2022/10/20 10:03:24;;;;;;;;;;;23.90;71.20;;;;;;5061636;28;19909;-80
2022/10/20 10:05:51;;;;;;;;;;;23.80;70.90;;;;;;5061114;28;19919;-79
2022/10/20 10:08:17;;;;;;;;;;;24.00;70.70;;;;;;5062685;28;19916;-79
2022/10/20 10:10:44;;;;;;;;;;;24.60;69.90;;;;;;5067287;28;19916;-79
2022/10/20 10:13:21;;;;;;;;;;;25.30;69.50;;;;;;5065288;28;19917;-80
2022/10/20 10:15:46;;;;;;;;;;;25.40;68.10;;;;;;5066929;28;19919;-79
2022/10/20 10:18:21;;;;;;;;;;;24.50;68.00;;;;;;5063156;28;20000;-84
2022/10/20 10:20:55;;;;;;;;;;;24.20;68.90;;;;;;5061038;28;19936;-80
2022/10/20 10:23:22;;;;;;;;;;;23.80;69.30;;;;;;5062735;28;19913;-79
2022/10/20 10:25:49;;;;;;;;;;;23.90;69.50;;;;;;5046017;28;19909;-81
2022/10/20 10:28:38;;;;;;;;;;;24.00;68.70;;;;;;5066089;28;19920;-79
2022/10/20 10:31:08;;;;;;;;;;;24.20;69.00;;;;;;5043466;28;20007;-81
2022/10/20 10:33:33;;;;;;;;;;;23.80;69.40;;;;;;5062314;28;20007;-80
2022/10/20 10:36:05;;;;;;;;;;;23.50;70.10;;;;;;5053439;28;20162;-80
2022/10/20 10:38:31;;;;;;;;;;;23.50;69.90;;;;;;5074146;28;19919;-82
2022/10/20 10:41:03;;;;;;;;;;;23.20;70.70;;;;;;5067678;28;19909;-80
2022/10/20 10:43:36;;;;;;;;;;;23.40;70.70;;;;;;5065933;28;19912;-81
2022/10/20 10:46:06;;;;;;;;;;;23.30;70.50;;;;;;5066760;28;19917;-79
2022/10/20 10:48:51;;;;;;;;;;;23.30;70.80;;;;;;5049549;28;20090;-80
2022/10/20 10:51:23;;;;;;;;;;;23.20;71.10;;;;;;5069375;28;19913;-80
2022/10/20 10:54:01;;;;;;;;;;;23.40;70.80;;;;;;5057143;28;19905;-79
2022/10/20 10:56:35;;;;;;;;;;;23.80;70.50;;;;;;5076652;28;19947;-78
2022/10/20 10:59:04;;;;;;;;;;;23.60;70.40;;;;;;5076665;28;19905;-80
2022/10/20 11:01:42;;;;;;;;;;;23.50;70.30;;;;;;5077300;28;19917;-80
2022/10/20 11:04:08;;;;;;;;;;;23.20;70.90;;;;;;5043232;28;20126;-78
2022/10/20 11:06:43;;;;;;;;;;;22.80;70.80;;;;;;5073078;28;19920;-79
2022/10/20 11:09:13;;;;;;;;;;;22.10;72.70;;;;;;5062901;28;19958;-80
2022/10/20 11:11:39;;;;;;;;;;;22.10;73.10;;;;;;5064790;28;19998;-80
2022/10/20 11:14:05;;;;;;;;;;;22.50;72.70;;;;;;5061372;28;19913;-78
2022/10/20 11:16:30;;;;;;;;;;;23.00;72.00;;;;;;5061456;28;19955;-80
2022/10/20 11:18:56;;;;;;;;;;;23.20;71.20;;;;;;5060521;28;20277;-80
2022/10/20 11:21:21;;;;;;;;;;;23.40;71.20;;;;;;5058678;28;19948;-80
2022/10/20 11:23:59;;;;;;;;;;;23.30;71.00;;;;;;5059439;28;20373;-81
2022/10/20 11:26:27;;;;;;;;;;;23.30;71.10;;;;;;5061720;28;19921;-82
2022/10/20 11:28:54;;;;;;;;;;;23.50;70.90;;;;;;5060570;28;20376;-81
2022/10/20 11:31:25;;;;;;;;;;;23.60;71.00;;;;;;5061392;28;19978;-81
2022/10/20 11:34:10;;;;;;;;;;;24.10;70.50;;;;;;5024608;28;20277;-81
2022/10/20 11:36:42;;;;;;;;;;;24.00;69.90;;;;;;5044814;28;19917;-79
2022/10/20 11:39:12;;;;;;;;;;;24.20;69.60;;;;;;5063147;28;19921;-81
2022/10/20 11:41:44;;;;;;;;;;;24.80;69.10;;;;;;5047620;28;19919;-81
2022/10/20 11:44:15;;;;;;;;;;;25.20;68.40;;;;;;5064930;28;19916;-81
2022/10/20 11:46:44;;;;;;;;;;;25.90;67.20;;;;;;5045896;28;19962;-82
2022/10/20 11:49:12;;;;;;;;;;;26.00;67.00;;;;;;5064186;28;19959;-80
2022/10/20 11:51:57;;;;;;;;;;;26.00;66.80;;;;;;5046541;28;19912;-80
2022/10/20 11:54:29;;;;;;;;;;;26.20;66.10;;;;;;5052149;28;19924;-79
2022/10/20 11:56:54;;;;;;;;;;;26.10;66.80;;;;;;5065875;28;19959;-81
2022/10/20 11:59:39;;;;;;;;;;;26.80;66.40;;;;;;5029277;28;19909;-80
2022/10/20 12:02:17;;;;;;;;;;;26.70;65.30;;;;;;5064666;28;20397;-78
2022/10/20 12:04:49;;;;;;;;;;;26.30;66.20;;;;;;5064014;28;20000;-79
2022/10/20 12:07:28;;;;;;;;;;;26.50;66.00;;;;;;5047070;28;19932;-82
2022/10/20 12:09:59;;;;;;;;;;;26.80;65.20;;;;;;5063282;28;19982;-82
2022/10/20 12:12:36;;;;;;;;;;;27.50;64.50;;;;;;5063168;28;19917;-80
2022/10/20 12:15:03;;;;;;;;;;;27.10;64.60;;;;;;5062614;28;19913;-80
2022/10/20 12:17:31;;;;;;;;;;;26.60;64.60;;;;;;5062396;28;19944;-81
2022/10/20 12:20:17;;;;;;;;;;;25.30;65.80;;;;;;5065462;28;19913;-80
2022/10/20 12:22:43;;;;;;;;;;;24.00;68.10;;;;;;5025144;28;19924;-81
2022/10/20 12:25:08;;;;;;;;;;;22.50;71.00;;;;;;5066430;28;19909;-81
2022/10/20 12:27:34;;;;;;;;;;;21.40;73.20;;;;;;5064992;28;19959;-79
2022/10/20 12:30:00;;;;;;;;;;;20.50;75.40;;;;;;5046871;28;19935;-81
2022/10/20 12:32:44;;;;;;;;;;;20.00;77.20;;;;;;5064141;28;19924;-80
2022/10/20 12:35:10;;;;;;;;;;;19.50;78.30;;;;;;5066744;28;19913;-79
2022/10/20 12:37:36;;;;;;;;;;;19.00;80.30;;;;;;5066824;28;19972;-82
2022/10/20 12:40:05;;;;;;;;;;;18.70;81.60;;;;;;5070627;28;19928;-81
2022/10/20 12:42:39;;;;;;;;;;;18.30;83.10;;;;;;5047831;28;19909;-80
2022/10/20 12:45:22;;;;;;;;;;;18.00;84.60;;;;;;5047202;28;19987;-80
2022/10/20 12:47:57;;;;;;;;;;;17.60;86.30;;;;;;5066976;28;19913;-79
2022/10/20 12:50:38;;;;;;;;;;;17.40;87.30;;;;;;5067328;28;19913;-80
2022/10/20 12:53:16;;;;;;;;;;;17.20;88.50;;;;;;5049407;28;20392;-80
2022/10/20 12:55:43;;;;;;;;;;;17.20;89.50;;;;;;5067269;28;20447;-80
2022/10/20 12:58:17;;;;;;;;;;;17.10;90.40;;;;;;5066707;28;19909;-80
2022/10/20 13:00:46;;;;;;;;;;;17.00;90.80;;;;;;5065474;28;20012;-80
2022/10/20 13:03:30;;;;;;;;;;;16.90;91.10;;;;;;5072183;28;19932;-80
2022/10/20 13:08:54;;;;;;;;;;;16.80;91.70;;;;;;1316334;26;19933;-90
2022/10/20 13:19:00;;;;;;;;;;;16.50;93.20;;;;;;4987818;28;19929;-87
2022/10/20 13:39:20;;;;;;;;;;;16.10;95.30;;;;;;5048051;23;19936;-89
2022/10/20 13:42:55;;;;;;;;;;;;;;;;;;;;;
2022/10/20 13:49:15;;;;;;;;;;;;;;;;;;;;;
2022/10/20 13:52:15;;;;;;;;;;;16.20;95.30;;;;;;5011747;22;19925;-82
2022/10/20 13:54:43;;;;;;;;;;;16.20;95.70;;;;;;5049755;28;19917;-81
2022/10/20 13:57:29;;;;;;;;;;;16.10;96.00;;;;;;5030700;28;19909;-80
2022/10/20 14:00:14;;;;;;;;;;;16.10;95.90;;;;;;5027176;28;19913;-81
2022/10/20 14:02:49;;;;;;;;;;;16.10;95.60;;;;;;5040337;28;19916;-81
2022/10/20 14:05:19;;;;;;;;;;;16.10;95.90;;;;;;5064708;28;20404;-80
2022/10/20 14:07:44;;;;;;;;;;;16.10;95.30;;;;;;5047405;28;19912;-82
2022/10/20 14:10:20;;;;;;;;;;;15.90;95.20;;;;;;5064616;28;19924;-82
2022/10/20 14:12:46;;;;;;;;;;;15.80;95.50;;;;;;5065506;28;19948;-82
2022/10/20 14:15:15;;;;;;;;;;;15.80;95.60;;;;;;5064175;28;20293;-84
2022/10/20 14:17:41;;;;;;;;;;;15.70;95.80;;;;;;5049550;28;19917;-82
2022/10/20 14:20:20;;;;;;;;;;;15.70;95.90;;;;;;5069479;28;19927;-79
2022/10/20 14:22:46;;;;;;;;;;;15.70;95.80;;;;;;5063758;28;19916;-83
2022/10/20 14:25:12;;;;;;;;;;;15.70;96.40;;;;;;5062596;28;20369;-83
2022/10/20 14:27:38;;;;;;;;;;;15.60;96.20;;;;;;5066836;28;19919;-82
2022/10/20 14:30:05;;;;;;;;;;;15.60;96.60;;;;;;5045472;28;19909;-81
2022/10/20 14:32:31;;;;;;;;;;;15.50;97.30;;;;;;5061829;28;19921;-82
2022/10/20 14:35:02;;;;;;;;;;;15.40;97.60;;;;;;5062512;28;19912;-82
2022/10/20 14:37:30;;;;;;;;;;;15.30;98.00;;;;;;5067755;28;19913;-82
2022/10/20 14:39:58;;;;;;;;;;;15.10;98.50;;;;;;5076174;28;19909;-84
2022/10/20 14:42:26;;;;;;;;;;;15.10;98.80;;;;;;5075952;28;19932;-82
2022/10/20 14:44:52;;;;;;;;;;;15.00;98.70;;;;;;5072214;28;19919;-83
2022/10/20 14:47:18;;;;;;;;;;;15.00;98.60;;;;;;5070127;28;19901;-80
2022/10/20 14:49:47;;;;;;;;;;;14.90;98.90;;;;;;5066784;28;19932;-83
2022/10/20 14:52:16;;;;;;;;;;;14.90;99.60;;;;;;5060448;28;19928;-81
2022/10/20 14:54:42;;;;;;;;;;;14.90;99.90;;;;;;5060961;28;19972;-82
2022/10/20 14:57:07;;;;;;;;;;;14.80;99.90;;;;;;5043528;28;19944;-82
2022/10/20 14:59:37;;;;;;;;;;;14.80;99.90;;;;;;5041377;28;19909;-83
2022/10/20 15:02:16;;;;;;;;;;;14.70;99.90;;;;;;5042361;28;20288;-81
2022/10/20 15:04:42;;;;;;;;;;;14.60;99.90;;;;;;5060250;28;19913;-81
2022/10/20 15:07:13;;;;;;;;;;;14.50;99.90;;;;;;5060316;28;20304;-82
2022/10/20 15:09:39;;;;;;;;;;;14.40;99.90;;;;;;5061298;28;19920;-83
2022/10/20 15:12:16;;;;;;;;;;;14.30;99.90;;;;;;5062406;28;19917;-82
2022/10/20 15:14:43;;;;;;;;;;;14.20;99.90;;;;;;5049429;28;19912;-82
2022/10/20 15:17:28;;;;;;;;;;;14.20;99.90;;;;;;5047730;28;19917;-83
2022/10/20 15:19:53;;;;;;;;;;;14.10;99.90;;;;;;5045925;28;19920;-81
2022/10/20 15:22:19;;;;;;;;;;;14.10;99.90;;;;;;5061834;28;19908;-82